sensor_id;sensor_type;location;lat;lon;timestamp;P1;durP1;ratioP1;P2;durP2;ratioP2
32399;SDS011;45045;45.440;9.178;2023-08-24T00:00:37;14.52;;;10.75;;
32399;SDS011;45045;45.440;9.178;2023-08-24T00:03:03;13.80;;;9.60;;
32399;SDS011;45045;45.440;9.178;2023-08-24T00:05:29;15.05;;;10.35;;
32399;SDS011;45045;45.440;9.178;2023-08-24T00:07:57;14.63;;;9.93;;
32399;SDS011;45045;45.440;9.178;2023-08-24T00:10:23;15.35;;;10.57;;
32399;SDS011;45045;45.440;9.178;2023-08-24T00:12:48;16.25;;;9.38;;
32399;SDS011;45045;45.440;9.178;2023-08-24T00:15:14;16.50;;;11.02;;
32399;SDS011;45045;45.440;9.178;2023-08-24T00:17:40;16.33;;;10.30;;
32399;SDS011;45045;45.440;9.178;2023-08-24T00:20:05;13.15;;;9.30;;
32399;SDS011;45045;45.440;9.178;2023-08-24T00:22:35;13.30;;;9.65;;
32399;SDS011;45045;45.440;9.178;2023-08-24T00:25:01;13.98;;;9.82;;
32399;SDS011;45045;45.440;9.178;2023-08-24T00:27:27;13.10;;;10.18;;
32399;SDS011;45045;45.440;9.178;2023-08-24T00:29:53;11.30;;;9.98;;
32399;SDS011;45045;45.440;9.178;2023-08-24T00:32:18;16.50;;;10.27;;
32399;SDS011;45045;45.440;9.178;2023-08-24T00:34:44;14.68;;;10.20;;
32399;SDS011;45045;45.440;9.178;2023-08-24T00:37:10;12.43;;;9.85;;
32399;SDS011;45045;45.440;9.178;2023-08-24T00:39:36;17.02;;;9.98;;
32399;SDS011;45045;45.440;9.178;2023-08-24T00:42:02;12.30;;;9.35;;
32399;SDS011;45045;45.440;9.178;2023-08-24T00:44:28;15.02;;;9.88;;
32399;SDS011;45045;45.440;9.178;2023-08-24T00:46:53;12.80;;;9.85;;
32399;SDS011;45045;45.440;9.178;2023-08-24T00:49:20;14.57;;;9.88;;
32399;SDS011;45045;45.440;9.178;2023-08-24T00:51:46;15.75;;;10.50;;
32399;SDS011;45045;45.440;9.178;2023-08-24T00:54:12;15.15;;;9.93;;
32399;SDS011;45045;45.440;9.178;2023-08-24T00:56:37;14.57;;;9.82;;
32399;SDS011;45045;45.440;9.178;2023-08-24T00:59:04;15.48;;;10.57;;
32399;SDS011;45045;45.440;9.178;2023-08-24T01:01:30;11.98;;;9.85;;
32399;SDS011;45045;45.440;9.178;2023-08-24T01:03:55;12.52;;;10.02;;
32399;SDS011;45045;45.440;9.178;2023-08-24T01:06:21;12.35;;;9.20;;
32399;SDS011;45045;45.440;9.178;2023-08-24T01:08:47;14.27;;;9.65;;
32399;SDS011;45045;45.440;9.178;2023-08-24T01:16:19;13.18;;;9.85;;
32399;SDS011;45045;45.440;9.178;2023-08-24T01:18:52;14.98;;;11.02;;
32399;SDS011;45045;45.440;9.178;2023-08-24T01:21:21;16.65;;;10.50;;
32399;SDS011;45045;45.440;9.178;2023-08-24T01:26:19;13.25;;;10.13;;
32399;SDS011;45045;45.440;9.178;2023-08-24T01:28:46;12.75;;;9.38;;
32399;SDS011;45045;45.440;9.178;2023-08-24T01:31:16;11.75;;;10.25;;
32399;SDS011;45045;45.440;9.178;2023-08-24T01:33:42;15.23;;;10.65;;
32399;SDS011;45045;45.440;9.178;2023-08-24T01:36:09;17.58;;;10.30;;
32399;SDS011;45045;45.440;9.178;2023-08-24T01:38:36;13.02;;;10.27;;
32399;SDS011;45045;45.440;9.178;2023-08-24T01:41:09;18.38;;;10.50;;
32399;SDS011;45045;45.440;9.178;2023-08-24T01:43:39;11.95;;;10.40;;
32399;SDS011;45045;45.440;9.178;2023-08-24T01:46:08;15.05;;;9.88;;
32399;SDS011;45045;45.440;9.178;2023-08-24T01:48:36;15.55;;;10.20;;
32399;SDS011;45045;45.440;9.178;2023-08-24T01:51:02;11.77;;;9.73;;
32399;SDS011;45045;45.440;9.178;2023-08-24T01:53:30;17.63;;;10.57;;
32399;SDS011;45045;45.440;9.178;2023-08-24T01:55:56;14.20;;;9.82;;
32399;SDS011;45045;45.440;9.178;2023-08-24T01:58:22;18.45;;;10.10;;
32399;SDS011;45045;45.440;9.178;2023-08-24T02:00:47;14.48;;;9.68;;
32399;SDS011;45045;45.440;9.178;2023-08-24T02:03:13;12.23;;;9.45;;
32399;SDS011;45045;45.440;9.178;2023-08-24T02:05:39;12.73;;;9.82;;
32399;SDS011;45045;45.440;9.178;2023-08-24T02:08:05;13.90;;;9.95;;
32399;SDS011;45045;45.440;9.178;2023-08-24T02:10:30;12.75;;;9.27;;
32399;SDS011;45045;45.440;9.178;2023-08-24T02:12:56;12.60;;;9.95;;
32399;SDS011;45045;45.440;9.178;2023-08-24T02:15:22;13.30;;;9.57;;
32399;SDS011;45045;45.440;9.178;2023-08-24T02:17:47;12.20;;;9.57;;
32399;SDS011;45045;45.440;9.178;2023-08-24T02:20:13;15.00;;;10.15;;
32399;SDS011;45045;45.440;9.178;2023-08-24T02:22:39;12.52;;;9.48;;
32399;SDS011;45045;45.440;9.178;2023-08-24T02:25:05;15.10;;;9.57;;
32399;SDS011;45045;45.440;9.178;2023-08-24T02:27:31;11.90;;;9.40;;
32399;SDS011;45045;45.440;9.178;2023-08-24T02:29:57;12.20;;;9.73;;
32399;SDS011;45045;45.440;9.178;2023-08-24T02:32:22;14.75;;;9.68;;
32399;SDS011;45045;45.440;9.178;2023-08-24T02:34:48;14.35;;;9.73;;
32399;SDS011;45045;45.440;9.178;2023-08-24T02:37:14;10.88;;;9.60;;
32399;SDS011;45045;45.440;9.178;2023-08-24T02:39:39;14.05;;;10.43;;
32399;SDS011;45045;45.440;9.178;2023-08-24T02:42:05;14.40;;;10.20;;
32399;SDS011;45045;45.440;9.178;2023-08-24T02:44:31;11.52;;;8.90;;
32399;SDS011;45045;45.440;9.178;2023-08-24T02:46:56;29.00;;;10.73;;
32399;SDS011;45045;45.440;9.178;2023-08-24T02:49:22;13.40;;;10.18;;
32399;SDS011;45045;45.440;9.178;2023-08-24T02:51:48;13.52;;;10.70;;
32399;SDS011;45045;45.440;9.178;2023-08-24T02:54:14;12.38;;;10.23;;
32399;SDS011;45045;45.440;9.178;2023-08-24T02:56:40;12.43;;;9.60;;
32399;SDS011;45045;45.440;9.178;2023-08-24T02:59:05;16.00;;;10.02;;
32399;SDS011;45045;45.440;9.178;2023-08-24T03:01:31;12.05;;;9.40;;
32399;SDS011;45045;45.440;9.178;2023-08-24T03:03:57;17.75;;;10.25;;
32399;SDS011;45045;45.440;9.178;2023-08-24T03:06:22;13.15;;;9.50;;
32399;SDS011;45045;45.440;9.178;2023-08-24T03:08:51;12.70;;;9.65;;
32399;SDS011;45045;45.440;9.178;2023-08-24T03:11:16;12.88;;;9.38;;
32399;SDS011;45045;45.440;9.178;2023-08-24T03:13:42;12.40;;;9.70;;
32399;SDS011;45045;45.440;9.178;2023-08-24T03:16:08;13.15;;;10.10;;
32399;SDS011;45045;45.440;9.178;2023-08-24T03:18:34;12.10;;;9.80;;
32399;SDS011;45045;45.440;9.178;2023-08-24T03:21:00;12.50;;;9.65;;
32399;SDS011;45045;45.440;9.178;2023-08-24T03:23:26;12.65;;;9.40;;
32399;SDS011;45045;45.440;9.178;2023-08-24T03:25:52;14.52;;;9.50;;
32399;SDS011;45045;45.440;9.178;2023-08-24T03:28:18;14.05;;;9.90;;
32399;SDS011;45045;45.440;9.178;2023-08-24T03:30:47;12.43;;;9.45;;
32399;SDS011;45045;45.440;9.178;2023-08-24T03:33:14;14.32;;;8.90;;
32399;SDS011;45045;45.440;9.178;2023-08-24T03:35:40;14.48;;;9.23;;
32399;SDS011;45045;45.440;9.178;2023-08-24T03:38:06;11.68;;;9.10;;
32399;SDS011;45045;45.440;9.178;2023-08-24T03:40:32;14.55;;;9.60;;
32399;SDS011;45045;45.440;9.178;2023-08-24T03:42:57;14.02;;;9.10;;
32399;SDS011;45045;45.440;9.178;2023-08-24T03:45:23;12.23;;;9.60;;
32399;SDS011;45045;45.440;9.178;2023-08-24T03:47:48;11.35;;;9.45;;
32399;SDS011;45045;45.440;9.178;2023-08-24T03:50:14;12.27;;;9.70;;
32399;SDS011;45045;45.440;9.178;2023-08-24T03:52:40;14.07;;;9.50;;
32399;SDS011;45045;45.440;9.178;2023-08-24T03:55:07;16.42;;;10.70;;
32399;SDS011;45045;45.440;9.178;2023-08-24T03:57:33;15.43;;;10.10;;
32399;SDS011;45045;45.440;9.178;2023-08-24T03:59:58;11.77;;;9.50;;
32399;SDS011;45045;45.440;9.178;2023-08-24T04:02:24;11.95;;;9.38;;
32399;SDS011;45045;45.440;9.178;2023-08-24T04:04:50;14.38;;;9.27;;
32399;SDS011;45045;45.440;9.178;2023-08-24T04:07:15;15.70;;;9.75;;
32399;SDS011;45045;45.440;9.178;2023-08-24T04:09:41;13.25;;;10.18;;
32399;SDS011;45045;45.440;9.178;2023-08-24T04:12:07;12.80;;;9.73;;
32399;SDS011;45045;45.440;9.178;2023-08-24T04:14:33;13.40;;;8.98;;
32399;SDS011;45045;45.440;9.178;2023-08-24T04:16:58;12.88;;;9.68;;
32399;SDS011;45045;45.440;9.178;2023-08-24T04:19:24;10.13;;;9.13;;
32399;SDS011;45045;45.440;9.178;2023-08-24T04:21:50;15.50;;;9.50;;
32399;SDS011;45045;45.440;9.178;2023-08-24T04:24:15;13.90;;;9.30;;
32399;SDS011;45045;45.440;9.178;2023-08-24T04:26:41;16.35;;;9.63;;
32399;SDS011;45045;45.440;9.178;2023-08-24T04:29:06;13.85;;;9.50;;
32399;SDS011;45045;45.440;9.178;2023-08-24T04:31:32;13.57;;;10.00;;
32399;SDS011;45045;45.440;9.178;2023-08-24T04:33:58;13.80;;;9.02;;
32399;SDS011;45045;45.440;9.178;2023-08-24T04:36:23;13.93;;;9.30;;
32399;SDS011;45045;45.440;9.178;2023-08-24T04:38:49;13.98;;;9.82;;
32399;SDS011;45045;45.440;9.178;2023-08-24T04:41:14;11.10;;;9.90;;
32399;SDS011;45045;45.440;9.178;2023-08-24T04:43:40;12.65;;;9.77;;
32399;SDS011;45045;45.440;9.178;2023-08-24T04:46:06;12.13;;;9.20;;
32399;SDS011;45045;45.440;9.178;2023-08-24T04:48:31;13.30;;;9.38;;
32399;SDS011;45045;45.440;9.178;2023-08-24T04:51:00;15.40;;;9.75;;
32399;SDS011;45045;45.440;9.178;2023-08-24T04:53:27;17.98;;;9.93;;
32399;SDS011;45045;45.440;9.178;2023-08-24T04:55:52;17.40;;;8.93;;
32399;SDS011;45045;45.440;9.178;2023-08-24T04:58:18;14.73;;;10.15;;
32399;SDS011;45045;45.440;9.178;2023-08-24T05:00:44;16.77;;;9.57;;
32399;SDS011;45045;45.440;9.178;2023-08-24T05:03:10;12.57;;;10.52;;
32399;SDS011;45045;45.440;9.178;2023-08-24T05:05:36;15.60;;;10.18;;
32399;SDS011;45045;45.440;9.178;2023-08-24T05:08:02;16.38;;;10.18;;
32399;SDS011;45045;45.440;9.178;2023-08-24T05:10:35;16.95;;;10.15;;
32399;SDS011;45045;45.440;9.178;2023-08-24T05:13:01;15.18;;;10.32;;
32399;SDS011;45045;45.440;9.178;2023-08-24T05:15:27;15.68;;;10.50;;
32399;SDS011;45045;45.440;9.178;2023-08-24T05:17:53;12.20;;;10.40;;
32399;SDS011;45045;45.440;9.178;2023-08-24T05:20:21;10.98;;;9.88;;
32399;SDS011;45045;45.440;9.178;2023-08-24T05:22:47;16.08;;;11.20;;
32399;SDS011;45045;45.440;9.178;2023-08-24T05:25:13;13.68;;;10.38;;
32399;SDS011;45045;45.440;9.178;2023-08-24T05:27:41;18.65;;;10.50;;
32399;SDS011;45045;45.440;9.178;2023-08-24T05:30:07;15.48;;;10.82;;
32399;SDS011;45045;45.440;9.178;2023-08-24T05:32:34;17.63;;;11.27;;
32399;SDS011;45045;45.440;9.178;2023-08-24T05:35:04;14.65;;;10.75;;
32399;SDS011;45045;45.440;9.178;2023-08-24T05:37:30;17.17;;;11.25;;
32399;SDS011;45045;45.440;9.178;2023-08-24T05:39:56;17.98;;;11.68;;
32399;SDS011;45045;45.440;9.178;2023-08-24T05:42:22;20.55;;;10.85;;
32399;SDS011;45045;45.440;9.178;2023-08-24T05:44:47;17.02;;;11.30;;
32399;SDS011;45045;45.440;9.178;2023-08-24T05:47:13;12.82;;;11.38;;
32399;SDS011;45045;45.440;9.178;2023-08-24T05:49:39;16.98;;;11.20;;
32399;SDS011;45045;45.440;9.178;2023-08-24T05:52:04;19.73;;;11.57;;
32399;SDS011;45045;45.440;9.178;2023-08-24T05:54:30;19.88;;;11.88;;
32399;SDS011;45045;45.440;9.178;2023-08-24T05:56:57;17.63;;;11.30;;
32399;SDS011;45045;45.440;9.178;2023-08-24T05:59:25;20.02;;;11.70;;
32399;SDS011;45045;45.440;9.178;2023-08-24T06:01:51;20.10;;;12.75;;
32399;SDS011;45045;45.440;9.178;2023-08-24T06:04:17;17.25;;;12.40;;
32399;SDS011;45045;45.440;9.178;2023-08-24T06:06:44;16.20;;;11.95;;
32399;SDS011;45045;45.440;9.178;2023-08-24T06:09:10;23.05;;;12.77;;
32399;SDS011;45045;45.440;9.178;2023-08-24T06:11:36;21.92;;;12.65;;
32399;SDS011;45045;45.440;9.178;2023-08-24T06:14:01;19.52;;;13.48;;
32399;SDS011;45045;45.440;9.178;2023-08-24T06:16:27;16.45;;;13.00;;
32399;SDS011;45045;45.440;9.178;2023-08-24T06:18:54;16.23;;;12.63;;
32399;SDS011;45045;45.440;9.178;2023-08-24T06:21:19;20.27;;;13.93;;
32399;SDS011;45045;45.440;9.178;2023-08-24T06:23:45;17.20;;;13.40;;
32399;SDS011;45045;45.440;9.178;2023-08-24T06:26:12;18.55;;;14.20;;
32399;SDS011;45045;45.440;9.178;2023-08-24T06:28:39;19.17;;;14.10;;
32399;SDS011;45045;45.440;9.178;2023-08-24T06:31:04;17.80;;;14.43;;
32399;SDS011;45045;45.440;9.178;2023-08-24T06:33:36;18.95;;;15.13;;
32399;SDS011;45045;45.440;9.178;2023-08-24T06:36:03;20.30;;;13.70;;
32399;SDS011;45045;45.440;9.178;2023-08-24T06:38:30;17.73;;;13.43;;
32399;SDS011;45045;45.440;9.178;2023-08-24T06:40:57;19.52;;;12.85;;
32399;SDS011;45045;45.440;9.178;2023-08-24T06:43:23;21.45;;;13.73;;
32399;SDS011;45045;45.440;9.178;2023-08-24T06:45:49;20.95;;;13.35;;
32399;SDS011;45045;45.440;9.178;2023-08-24T06:48:15;15.57;;;13.25;;
32399;SDS011;45045;45.440;9.178;2023-08-24T06:50:41;19.63;;;13.50;;
32399;SDS011;45045;45.440;9.178;2023-08-24T06:53:07;18.85;;;13.90;;
32399;SDS011;45045;45.440;9.178;2023-08-24T06:55:32;24.20;;;13.07;;
32399;SDS011;45045;45.440;9.178;2023-08-24T06:57:58;17.25;;;13.80;;
32399;SDS011;45045;45.440;9.178;2023-08-24T07:00:23;21.45;;;12.88;;
32399;SDS011;45045;45.440;9.178;2023-08-24T07:02:50;22.77;;;13.68;;
32399;SDS011;45045;45.440;9.178;2023-08-24T07:05:16;22.88;;;13.65;;
32399;SDS011;45045;45.440;9.178;2023-08-24T07:07:46;16.85;;;13.77;;
32399;SDS011;45045;45.440;9.178;2023-08-24T07:10:14;17.90;;;12.37;;
32399;SDS011;45045;45.440;9.178;2023-08-24T07:12:40;20.48;;;13.02;;
32399;SDS011;45045;45.440;9.178;2023-08-24T07:15:06;18.50;;;13.13;;
32399;SDS011;45045;45.440;9.178;2023-08-24T07:17:32;16.65;;;12.45;;
32399;SDS011;45045;45.440;9.178;2023-08-24T07:19:58;18.50;;;13.00;;
32399;SDS011;45045;45.440;9.178;2023-08-24T07:22:24;21.05;;;13.52;;
32399;SDS011;45045;45.440;9.178;2023-08-24T07:24:51;14.45;;;12.32;;
32399;SDS011;45045;45.440;9.178;2023-08-24T07:27:17;18.55;;;13.63;;
32399;SDS011;45045;45.440;9.178;2023-08-24T07:29:43;17.63;;;11.88;;
32399;SDS011;45045;45.440;9.178;2023-08-24T07:32:09;18.30;;;12.20;;
32399;SDS011;45045;45.440;9.178;2023-08-24T07:34:35;16.73;;;12.07;;
32399;SDS011;45045;45.440;9.178;2023-08-24T07:37:01;15.02;;;11.45;;
32399;SDS011;45045;45.440;9.178;2023-08-24T07:39:27;20.20;;;12.00;;
32399;SDS011;45045;45.440;9.178;2023-08-24T07:41:52;16.90;;;11.05;;
32399;SDS011;45045;45.440;9.178;2023-08-24T07:44:18;16.08;;;11.15;;
32399;SDS011;45045;45.440;9.178;2023-08-24T07:46:44;15.32;;;11.40;;
32399;SDS011;45045;45.440;9.178;2023-08-24T07:49:09;15.45;;;10.00;;
32399;SDS011;45045;45.440;9.178;2023-08-24T07:51:35;17.23;;;10.80;;
32399;SDS011;45045;45.440;9.178;2023-08-24T07:54:01;16.17;;;10.38;;
32399;SDS011;45045;45.440;9.178;2023-08-24T07:56:29;16.80;;;10.60;;
32399;SDS011;45045;45.440;9.178;2023-08-24T07:58:55;14.77;;;9.88;;
32399;SDS011;45045;45.440;9.178;2023-08-24T08:01:20;14.50;;;9.80;;
32399;SDS011;45045;45.440;9.178;2023-08-24T08:03:46;14.38;;;9.95;;
32399;SDS011;45045;45.440;9.178;2023-08-24T08:06:11;13.85;;;9.77;;
32399;SDS011;45045;45.440;9.178;2023-08-24T08:08:38;13.48;;;9.13;;
32399;SDS011;45045;45.440;9.178;2023-08-24T08:11:04;11.70;;;9.40;;
32399;SDS011;45045;45.440;9.178;2023-08-24T08:13:30;13.10;;;9.25;;
32399;SDS011;45045;45.440;9.178;2023-08-24T08:16:03;11.32;;;9.40;;
32399;SDS011;45045;45.440;9.178;2023-08-24T08:18:29;16.73;;;8.93;;
32399;SDS011;45045;45.440;9.178;2023-08-24T08:20:56;11.80;;;9.02;;
32399;SDS011;45045;45.440;9.178;2023-08-24T08:23:22;13.00;;;8.70;;
32399;SDS011;45045;45.440;9.178;2023-08-24T08:25:47;13.27;;;8.85;;
32399;SDS011;45045;45.440;9.178;2023-08-24T08:28:13;14.27;;;8.05;;
32399;SDS011;45045;45.440;9.178;2023-08-24T08:30:39;11.13;;;8.52;;
32399;SDS011;45045;45.440;9.178;2023-08-24T08:33:04;11.23;;;8.75;;
32399;SDS011;45045;45.440;9.178;2023-08-24T08:35:30;11.52;;;8.65;;
32399;SDS011;45045;45.440;9.178;2023-08-24T08:37:55;15.25;;;8.57;;
32399;SDS011;45045;45.440;9.178;2023-08-24T08:40:21;13.48;;;8.65;;
32399;SDS011;45045;45.440;9.178;2023-08-24T08:42:55;12.65;;;8.65;;
32399;SDS011;45045;45.440;9.178;2023-08-24T08:45:24;13.70;;;9.07;;
32399;SDS011;45045;45.440;9.178;2023-08-24T08:50:24;12.23;;;9.07;;
32399;SDS011;45045;45.440;9.178;2023-08-24T08:52:50;14.70;;;9.35;;
32399;SDS011;45045;45.440;9.178;2023-08-24T08:55:16;16.45;;;9.90;;
32399;SDS011;45045;45.440;9.178;2023-08-24T08:57:42;13.30;;;9.13;;
32399;SDS011;45045;45.440;9.178;2023-08-24T09:00:09;18.20;;;10.88;;
32399;SDS011;45045;45.440;9.178;2023-08-24T09:02:38;13.82;;;9.30;;
32399;SDS011;45045;45.440;9.178;2023-08-24T09:05:07;15.13;;;9.50;;
32399;SDS011;45045;45.440;9.178;2023-08-24T09:07:34;20.55;;;10.63;;
32399;SDS011;45045;45.440;9.178;2023-08-24T09:10:01;12.73;;;9.75;;
32399;SDS011;45045;45.440;9.178;2023-08-24T09:12:30;15.73;;;10.23;;
32399;SDS011;45045;45.440;9.178;2023-08-24T09:14:58;13.73;;;9.75;;
32399;SDS011;45045;45.440;9.178;2023-08-24T09:17:23;13.52;;;10.25;;
32399;SDS011;45045;45.440;9.178;2023-08-24T09:19:49;16.92;;;10.77;;
32399;SDS011;45045;45.440;9.178;2023-08-24T09:22:16;11.48;;;9.20;;
32399;SDS011;45045;45.440;9.178;2023-08-24T09:24:42;16.00;;;10.40;;
32399;SDS011;45045;45.440;9.178;2023-08-24T09:27:18;11.35;;;8.80;;
32399;SDS011;45045;45.440;9.178;2023-08-24T09:29:51;12.02;;;10.70;;
32399;SDS011;45045;45.440;9.178;2023-08-24T09:32:24;14.57;;;9.68;;
32399;SDS011;45045;45.440;9.178;2023-08-24T09:34:52;13.68;;;9.45;;
32399;SDS011;45045;45.440;9.178;2023-08-24T09:37:18;12.45;;;8.93;;
32399;SDS011;45045;45.440;9.178;2023-08-24T09:39:45;15.30;;;10.02;;
32399;SDS011;45045;45.440;9.178;2023-08-24T09:42:11;15.32;;;11.27;;
32399;SDS011;45045;45.440;9.178;2023-08-24T09:44:38;12.60;;;10.60;;
32399;SDS011;45045;45.440;9.178;2023-08-24T09:47:09;12.00;;;8.90;;
32399;SDS011;45045;45.440;9.178;2023-08-24T09:49:38;14.15;;;9.07;;
32399;SDS011;45045;45.440;9.178;2023-08-24T09:52:07;12.63;;;9.05;;
32399;SDS011;45045;45.440;9.178;2023-08-24T09:54:37;12.23;;;10.35;;
32399;SDS011;45045;45.440;9.178;2023-08-24T09:57:04;17.25;;;10.80;;
32399;SDS011;45045;45.440;9.178;2023-08-24T09:59:34;15.50;;;9.73;;
32399;SDS011;45045;45.440;9.178;2023-08-24T10:02:04;16.27;;;9.43;;
32399;SDS011;45045;45.440;9.178;2023-08-24T10:04:41;12.52;;;8.60;;
32399;SDS011;45045;45.440;9.178;2023-08-24T10:07:10;15.45;;;9.88;;
32399;SDS011;45045;45.440;9.178;2023-08-24T10:09:47;15.02;;;8.43;;
32399;SDS011;45045;45.440;9.178;2023-08-24T10:12:20;10.68;;;8.27;;
32399;SDS011;45045;45.440;9.178;2023-08-24T10:14:53;11.55;;;8.50;;
32399;SDS011;45045;45.440;9.178;2023-08-24T10:17:25;16.00;;;10.20;;
32399;SDS011;45045;45.440;9.178;2023-08-24T10:19:52;11.35;;;8.88;;
32399;SDS011;45045;45.440;9.178;2023-08-24T10:22:21;14.60;;;9.20;;
32399;SDS011;45045;45.440;9.178;2023-08-24T10:24:47;15.63;;;10.30;;
32399;SDS011;45045;45.440;9.178;2023-08-24T10:27:14;14.38;;;8.73;;
32399;SDS011;45045;45.440;9.178;2023-08-24T10:29:41;13.70;;;9.18;;
32399;SDS011;45045;45.440;9.178;2023-08-24T10:32:07;9.80;;;8.50;;
32399;SDS011;45045;45.440;9.178;2023-08-24T10:34:34;14.02;;;9.40;;
32399;SDS011;45045;45.440;9.178;2023-08-24T10:37:09;30.20;;;9.55;;
32399;SDS011;45045;45.440;9.178;2023-08-24T10:39:35;14.63;;;8.18;;
32399;SDS011;45045;45.440;9.178;2023-08-24T10:42:12;10.50;;;8.15;;
32399;SDS011;45045;45.440;9.178;2023-08-24T10:44:39;9.82;;;7.50;;
32399;SDS011;45045;45.440;9.178;2023-08-24T10:49:39;10.00;;;8.13;;
32399;SDS011;45045;45.440;9.178;2023-08-24T10:52:18;13.68;;;8.00;;
32399;SDS011;45045;45.440;9.178;2023-08-24T10:54:46;16.63;;;7.95;;
32399;SDS011;45045;45.440;9.178;2023-08-24T10:59:57;11.02;;;8.43;;
32399;SDS011;45045;45.440;9.178;2023-08-24T11:02:24;16.17;;;8.07;;
32399;SDS011;45045;45.440;9.178;2023-08-24T11:07:47;10.90;;;8.15;;
32399;SDS011;45045;45.440;9.178;2023-08-24T11:10:18;13.38;;;7.90;;
32399;SDS011;45045;45.440;9.178;2023-08-24T11:13:26;9.68;;;7.57;;
32399;SDS011;45045;45.440;9.178;2023-08-24T11:15:42;12.25;;;7.50;;
32399;SDS011;45045;45.440;9.178;2023-08-24T11:18:14;13.75;;;8.25;;
32399;SDS011;45045;45.440;9.178;2023-08-24T11:20:47;12.50;;;7.63;;
32399;SDS011;45045;45.440;9.178;2023-08-24T11:23:14;13.93;;;7.95;;
32399;SDS011;45045;45.440;9.178;2023-08-24T11:25:41;12.23;;;8.60;;
32399;SDS011;45045;45.440;9.178;2023-08-24T11:28:06;13.10;;;7.78;;
32399;SDS011;45045;45.440;9.178;2023-08-24T11:30:32;16.10;;;7.80;;
32399;SDS011;45045;45.440;9.178;2023-08-24T11:32:59;14.25;;;7.35;;
32399;SDS011;45045;45.440;9.178;2023-08-24T11:35:25;13.40;;;7.85;;
32399;SDS011;45045;45.440;9.178;2023-08-24T11:37:54;11.75;;;8.02;;
32399;SDS011;45045;45.440;9.178;2023-08-24T11:40:20;12.05;;;7.35;;
32399;SDS011;45045;45.440;9.178;2023-08-24T11:42:53;11.25;;;6.85;;
32399;SDS011;45045;45.440;9.178;2023-08-24T11:45:20;11.35;;;6.85;;
32399;SDS011;45045;45.440;9.178;2023-08-24T11:47:46;9.63;;;7.00;;
32399;SDS011;45045;45.440;9.178;2023-08-24T11:50:12;13.13;;;7.70;;
32399;SDS011;45045;45.440;9.178;2023-08-24T11:52:43;14.10;;;7.43;;
32399;SDS011;45045;45.440;9.178;2023-08-24T11:55:09;8.80;;;6.97;;
32399;SDS011;45045;45.440;9.178;2023-08-24T11:57:36;12.73;;;7.35;;
32399;SDS011;45045;45.440;9.178;2023-08-24T12:00:02;11.05;;;7.25;;
32399;SDS011;45045;45.440;9.178;2023-08-24T12:02:29;10.27;;;7.13;;
32399;SDS011;45045;45.440;9.178;2023-08-24T12:04:55;13.05;;;6.25;;
32399;SDS011;45045;45.440;9.178;2023-08-24T12:07:22;9.50;;;6.28;;
32399;SDS011;45045;45.440;9.178;2023-08-24T12:09:48;12.93;;;6.50;;
32399;SDS011;45045;45.440;9.178;2023-08-24T12:12:17;9.88;;;6.13;;
32399;SDS011;45045;45.440;9.178;2023-08-24T12:14:45;10.70;;;5.93;;
32399;SDS011;45045;45.440;9.178;2023-08-24T12:17:13;9.00;;;6.50;;
32399;SDS011;45045;45.440;9.178;2023-08-24T12:19:43;12.13;;;6.03;;
32399;SDS011;45045;45.440;9.178;2023-08-24T12:22:13;9.32;;;5.82;;
32399;SDS011;45045;45.440;9.178;2023-08-24T12:24:45;9.43;;;5.95;;
32399;SDS011;45045;45.440;9.178;2023-08-24T12:27:44;7.75;;;5.82;;
32399;SDS011;45045;45.440;9.178;2023-08-24T12:30:03;9.20;;;6.20;;
32399;SDS011;45045;45.440;9.178;2023-08-24T12:32:48;11.07;;;5.88;;
32399;SDS011;45045;45.440;9.178;2023-08-24T12:35:17;12.60;;;5.28;;
32399;SDS011;45045;45.440;9.178;2023-08-24T12:37:43;8.60;;;5.15;;
32399;SDS011;45045;45.440;9.178;2023-08-24T12:40:08;6.75;;;5.15;;
32399;SDS011;45045;45.440;9.178;2023-08-24T12:42:34;12.48;;;5.18;;
32399;SDS011;45045;45.440;9.178;2023-08-24T12:45:00;10.77;;;5.50;;
32399;SDS011;45045;45.440;9.178;2023-08-24T12:47:26;10.82;;;5.30;;
32399;SDS011;45045;45.440;9.178;2023-08-24T12:49:52;8.35;;;5.15;;
32399;SDS011;45045;45.440;9.178;2023-08-24T12:52:19;9.88;;;5.82;;
32399;SDS011;45045;45.440;9.178;2023-08-24T12:54:45;10.73;;;5.90;;
32399;SDS011;45045;45.440;9.178;2023-08-24T12:57:11;9.95;;;5.40;;
32399;SDS011;45045;45.440;9.178;2023-08-24T12:59:37;9.25;;;5.45;;
32399;SDS011;45045;45.440;9.178;2023-08-24T13:02:03;9.43;;;5.18;;
32399;SDS011;45045;45.440;9.178;2023-08-24T13:04:29;9.50;;;4.72;;
32399;SDS011;45045;45.440;9.178;2023-08-24T13:06:57;12.60;;;5.32;;
32399;SDS011;45045;45.440;9.178;2023-08-24T13:09:23;11.55;;;5.40;;
32399;SDS011;45045;45.440;9.178;2023-08-24T13:11:49;10.45;;;5.03;;
32399;SDS011;45045;45.440;9.178;2023-08-24T13:14:14;8.85;;;4.68;;
32399;SDS011;45045;45.440;9.178;2023-08-24T13:16:40;9.25;;;4.53;;
32399;SDS011;45045;45.440;9.178;2023-08-24T13:19:06;8.63;;;4.38;;
32399;SDS011;45045;45.440;9.178;2023-08-24T13:21:32;8.48;;;4.60;;
32399;SDS011;45045;45.440;9.178;2023-08-24T13:23:58;8.48;;;4.47;;
32399;SDS011;45045;45.440;9.178;2023-08-24T13:26:23;9.77;;;5.03;;
32399;SDS011;45045;45.440;9.178;2023-08-24T13:28:50;10.00;;;4.95;;
32399;SDS011;45045;45.440;9.178;2023-08-24T13:31:16;7.45;;;4.18;;
32399;SDS011;45045;45.440;9.178;2023-08-24T13:33:42;13.27;;;4.93;;
32399;SDS011;45045;45.440;9.178;2023-08-24T13:36:08;9.25;;;5.00;;
32399;SDS011;45045;45.440;9.178;2023-08-24T13:38:33;10.05;;;4.80;;
32399;SDS011;45045;45.440;9.178;2023-08-24T13:40:59;7.50;;;4.53;;
32399;SDS011;45045;45.440;9.178;2023-08-24T13:43:25;8.30;;;4.55;;
32399;SDS011;45045;45.440;9.178;2023-08-24T13:45:51;11.95;;;4.70;;
32399;SDS011;45045;45.440;9.178;2023-08-24T13:48:16;9.70;;;4.85;;
32399;SDS011;45045;45.440;9.178;2023-08-24T13:50:48;8.90;;;5.20;;
32399;SDS011;45045;45.440;9.178;2023-08-24T13:53:16;10.27;;;4.90;;
32399;SDS011;45045;45.440;9.178;2023-08-24T13:55:41;10.98;;;4.88;;
32399;SDS011;45045;45.440;9.178;2023-08-24T13:58:08;6.95;;;4.68;;
32399;SDS011;45045;45.440;9.178;2023-08-24T14:00:33;9.88;;;5.70;;
32399;SDS011;45045;45.440;9.178;2023-08-24T14:02:59;11.30;;;4.82;;
32399;SDS011;45045;45.440;9.178;2023-08-24T14:05:25;8.15;;;5.38;;
32399;SDS011;45045;45.440;9.178;2023-08-24T14:07:50;7.68;;;5.00;;
32399;SDS011;45045;45.440;9.178;2023-08-24T14:10:16;10.60;;;5.30;;
32399;SDS011;45045;45.440;9.178;2023-08-24T14:12:42;8.50;;;5.00;;
32399;SDS011;45045;45.440;9.178;2023-08-24T14:15:07;8.68;;;5.30;;
32399;SDS011;45045;45.440;9.178;2023-08-24T14:17:34;10.95;;;5.25;;
32399;SDS011;45045;45.440;9.178;2023-08-24T14:19:59;11.73;;;5.53;;
32399;SDS011;45045;45.440;9.178;2023-08-24T14:22:25;9.55;;;5.43;;
32399;SDS011;45045;45.440;9.178;2023-08-24T14:24:51;8.88;;;5.70;;
32399;SDS011;45045;45.440;9.178;2023-08-24T14:27:17;12.80;;;5.60;;
32399;SDS011;45045;45.440;9.178;2023-08-24T14:29:42;9.20;;;5.57;;
32399;SDS011;45045;45.440;9.178;2023-08-24T14:32:08;8.23;;;5.28;;
32399;SDS011;45045;45.440;9.178;2023-08-24T14:34:34;13.18;;;6.00;;
32399;SDS011;45045;45.440;9.178;2023-08-24T14:36:59;10.02;;;5.32;;
32399;SDS011;45045;45.440;9.178;2023-08-24T14:39:25;10.90;;;6.00;;
32399;SDS011;45045;45.440;9.178;2023-08-24T14:41:51;11.18;;;5.45;;
32399;SDS011;45045;45.440;9.178;2023-08-24T14:44:16;10.55;;;5.93;;
32399;SDS011;45045;45.440;9.178;2023-08-24T14:46:42;10.55;;;5.72;;